Time;durP1;ratioP1;P1;durP2;ratioP2;P2;SDS_P1;SDS_P2;PMS_P1;PMS_P2;Temp;Humidity;BMP_temperature;BMP_pressure;BME280_temperature;BME280_humidity;BME280_pressure;Samples;Min_cycle;Max_cycle;Signal;HPM_P1;HPM_P2
2022/09/23 00:00:10;;;;;;;3.10;1.80;;;8.50;99.90;;;;;;5104558;28;20035;-80
2022/09/23 00:02:36;;;;;;;3.40;1.70;;;8.50;99.90;;;;;;4384830;28;10000464;-80
2022/09/23 00:05:02;;;;;;;3.92;1.70;;;8.50;99.90;;;;;;5112973;28;20049;-80
2022/09/23 00:07:27;;;;;;;3.85;1.55;;;8.50;99.90;;;;;;5089705;28;20085;-80
2022/09/23 00:09:54;;;;;;;1.95;1.55;;;8.50;99.90;;;;;;5098177;28;20077;-80
2022/09/23 00:12:19;;;;;;;2.25;1.50;;;8.50;99.90;;;;;;5099907;28;20038;-79
2022/09/23 00:14:45;;;;;;;1.50;1.40;;;8.50;99.90;;;;;;5115000;28;20027;-79
2022/09/23 00:17:10;;;;;;;2.03;1.50;;;8.40;99.90;;;;;;5088047;28;20016;-79
2022/09/23 00:19:39;;;;;;;1.60;1.50;;;8.40;99.90;;;;;;5095794;28;20364;-80
2022/09/23 00:22:06;;;;;;;1.60;1.48;;;8.40;99.90;;;;;;5089311;28;20027;-79
2022/09/23 00:24:31;;;;;;;3.10;1.70;;;8.40;99.90;;;;;;5102601;28;20138;-79
2022/09/23 00:27:00;;;;;;;2.47;1.80;;;8.40;99.90;;;;;;5099642;28;20375;-80
2022/09/23 00:29:25;;;;;;;2.28;1.65;;;8.40;99.90;;;;;;5097883;27;20438;-80
2022/09/23 00:31:51;;;;;;;2.55;1.65;;;8.40;99.90;;;;;;5097077;27;20020;-80
2022/09/23 00:34:16;;;;;;;2.17;1.60;;;8.50;99.90;;;;;;5100965;27;20077;-80
2022/09/23 00:36:42;;;;;;;3.05;1.80;;;8.50;99.90;;;;;;5106985;27;20031;-80
2022/09/23 00:39:08;;;;;;;6.25;2.25;;;8.50;99.90;;;;;;5103423;27;20028;-79
2022/09/23 00:41:35;;;;;;;4.60;2.20;;;8.50;99.90;;;;;;5099413;27;20155;-78
2022/09/23 00:44:22;;;;;;;2.38;2.10;;;8.40;99.90;;;;;;5099286;27;20052;-79
2022/09/23 00:46:49;;;;;;;3.05;2.08;;;8.40;99.90;;;;;;5111004;27;20217;-79
2022/09/23 00:49:28;;;;;;;2.45;1.98;;;8.30;99.90;;;;;;5116415;27;20477;-79
2022/09/23 00:51:59;;;;;;;1.98;1.73;;;8.20;99.90;;;;;;5126778;27;20035;-79
2022/09/23 00:54:26;;;;;;;2.60;2.00;;;8.20;99.90;;;;;;5115726;27;20080;-79
2022/09/23 00:56:53;;;;;;;3.63;1.98;;;8.10;99.90;;;;;;5117829;27;20502;-79
2022/09/23 00:59:19;;;;;;;2.67;2.10;;;8.10;99.90;;;;;;5128758;27;20038;-80
2022/09/23 01:01:48;;;;;;;2.25;1.90;;;8.10;99.90;;;;;;5119812;27;20023;-79
2022/09/23 01:04:14;;;;;;;2.55;1.90;;;8.10;99.90;;;;;;5117471;27;20259;-79
2022/09/23 01:06:40;;;;;;;2.42;1.80;;;8.00;99.90;;;;;;5112507;27;20199;-79
2022/09/23 01:09:06;;;;;;;1.95;1.63;;;7.90;99.90;;;;;;5122185;27;20030;-79
2022/09/23 01:11:50;;;;;;;2.10;1.90;;;7.90;99.90;;;;;;5128987;27;20053;-79
2022/09/23 01:14:37;;;;;;;4.38;1.70;;;7.80;99.90;;;;;;5119462;27;20020;-78
2022/09/23 01:17:15;;;;;;;2.53;1.98;;;7.70;99.90;;;;;;5112627;27;20031;-80
2022/09/23 01:19:58;;;;;;;2.28;2.00;;;7.70;99.90;;;;;;5119023;27;20155;-79
2022/09/23 01:22:41;;;;;;;3.63;2.08;;;7.70;99.90;;;;;;5123213;27;20106;-79
2022/09/23 01:25:25;;;;;;;2.67;1.90;;;7.60;99.90;;;;;;5117327;27;20441;-79
2022/09/23 01:28:10;;;;;;;3.58;2.10;;;7.60;99.90;;;;;;5115195;27;20027;-79
2022/09/23 01:31:00;;;;;;;2.50;2.10;;;7.60;99.90;;;;;;5116581;27;20061;-79
2022/09/23 01:33:47;;;;;;;4.20;2.22;;;7.60;99.90;;;;;;5113429;27;20090;-79
2022/09/23 01:36:19;;;;;;;3.00;2.20;;;7.60;99.90;;;;;;5114297;27;20471;-79
2022/09/23 01:39:00;;;;;;;3.08;2.20;;;7.50;99.90;;;;;;5120200;27;20065;-78
2022/09/23 01:41:46;;;;;;;3.85;2.25;;;7.50;99.90;;;;;;5128449;27;20039;-79
2022/09/23 01:44:20;;;;;;;2.55;2.22;;;7.50;99.90;;;;;;5130766;27;20533;-79
2022/09/23 01:46:54;;;;;;;4.07;2.30;;;7.50;99.90;;;;;;5132914;27;20028;-79
2022/09/23 01:49:38;;;;;;;2.50;2.28;;;7.40;99.90;;;;;;5117803;27;20018;-79
2022/09/23 01:52:21;;;;;;;4.03;2.40;;;7.30;99.90;;;;;;5114985;27;20030;-79
2022/09/23 01:54:56;;;;;;;5.30;2.45;;;7.30;99.90;;;;;;5113479;27;20039;-79
2022/09/23 01:57:36;;;;;;;3.88;2.40;;;7.30;99.90;;;;;;5129479;27;20716;-79
2022/09/23 02:00:13;;;;;;;2.28;2.08;;;7.20;99.90;;;;;;5122120;27;20583;-79
2022/09/23 02:02:48;;;;;;;3.35;2.45;;;7.20;99.90;;;;;;5115197;27;20031;-79
2022/09/23 02:05:24;;;;;;;2.90;2.58;;;7.20;99.90;;;;;;5120039;27;20430;-79
2022/09/23 02:08:09;;;;;;;3.25;2.60;;;7.20;99.90;;;;;;5111982;27;20050;-79
2022/09/23 02:10:39;;;;;;;3.72;2.55;;;7.20;99.90;;;;;;5116619;27;20050;-79
2022/09/23 02:13:14;;;;;;;3.33;2.70;;;7.20;99.90;;;;;;5124961;27;20510;-79
2022/09/23 02:15:49;;;;;;;2.70;2.22;;;7.20;99.90;;;;;;5123850;27;20034;-79
2022/09/23 02:18:45;;;;;;;3.50;2.70;;;7.10;99.90;;;;;;5124487;27;20027;-79
2022/09/23 02:21:13;;;;;;;3.35;2.42;;;7.10;99.90;;;;;;5116998;27;20035;-79
2022/09/23 02:23:49;;;;;;;3.15;2.47;;;7.10;99.90;;;;;;5113030;27;20342;-79
2022/09/23 02:26:50;;;;;;;4.00;2.55;;;7.10;99.90;;;;;;5118922;27;20042;-79
2022/09/23 02:29:27;;;;;;;3.17;2.58;;;7.10;99.90;;;;;;5102966;27;20533;-79
2022/09/23 02:32:11;;;;;;;4.28;2.70;;;7.00;99.90;;;;;;5118982;27;20562;-78
2022/09/23 02:35:04;;;;;;;3.25;2.72;;;7.00;99.90;;;;;;5111008;27;20502;-79
2022/09/23 02:37:52;;;;;;;4.53;2.80;;;7.00;99.90;;;;;;5124379;27;20030;-79
2022/09/23 02:40:39;;;;;;;3.53;3.05;;;7.00;99.90;;;;;;5122757;27;20041;-78
2022/09/23 02:43:10;;;;;;;3.47;2.72;;;7.00;99.90;;;;;;5128329;27;20102;-78
2022/09/23 02:45:37;;;;;;;3.45;2.53;;;6.90;99.90;;;;;;5113072;27;20027;-79
2022/09/23 02:48:42;;;;;;;3.40;2.78;;;6.90;99.90;;;;;;5122466;27;20033;-79
2022/09/23 02:51:08;;;;;;;3.38;2.83;;;6.90;99.90;;;;;;5009370;28;20033;-79
2022/09/23 02:53:35;;;;;;;3.53;2.80;;;6.90;99.90;;;;;;5106456;27;20455;-79
2022/09/23 02:56:11;;;;;;;4.03;3.03;;;6.90;99.90;;;;;;5104504;27;20027;-79
2022/09/23 02:58:37;;;;;;;4.18;2.88;;;6.90;99.90;;;;;;5119188;27;20022;-79
2022/09/23 03:01:17;;;;;;;3.67;3.03;;;6.80;99.90;;;;;;5127488;27;20034;-79
2022/09/23 03:04:13;;;;;;;3.70;2.63;;;6.80;99.90;;;;;;5119007;27;20032;-79
2022/09/23 03:06:53;;;;;;;4.25;3.00;;;6.80;99.90;;;;;;5079188;27;20313;-79
2022/09/23 03:09:25;;;;;;;4.90;3.10;;;6.80;99.90;;;;;;5118338;27;20039;-79
2022/09/23 03:12:08;;;;;;;2.60;2.40;;;6.80;99.90;;;;;;5123184;27;20023;-79
2022/09/23 03:14:47;;;;;;;3.53;3.22;;;6.80;99.90;;;;;;5117002;27;20345;-78
2022/09/23 03:17:32;;;;;;;4.82;3.05;;;6.80;99.90;;;;;;5115473;27;20118;-79
2022/09/23 03:20:04;;;;;;;3.35;3.03;;;6.80;99.90;;;;;;5104058;27;20116;-79
2022/09/23 03:22:38;;;;;;;3.22;2.60;;;6.80;99.90;;;;;;5116477;27;20058;-79
2022/09/23 03:25:10;;;;;;;4.50;3.20;;;6.70;99.90;;;;;;5122300;27;20038;-78
2022/09/23 03:27:36;;;;;;;3.83;3.25;;;6.80;99.90;;;;;;5114195;27;20084;-79
2022/09/23 03:30:03;;;;;;;3.67;2.90;;;6.70;99.90;;;;;;5125196;27;20309;-78
2022/09/23 03:32:30;;;;;;;3.67;2.88;;;6.70;99.90;;;;;;5135203;27;20031;-78
2022/09/23 03:34:58;;;;;;;3.33;2.95;;;6.70;99.90;;;;;;5130807;27;20040;-78
2022/09/23 03:37:43;;;;;;;5.28;3.10;;;6.60;99.90;;;;;;5114070;28;20104;-78
2022/09/23 03:40:14;;;;;;;4.22;3.10;;;6.60;99.90;;;;;;5120047;27;20041;-78
2022/09/23 03:42:40;;;;;;;3.67;2.75;;;6.60;99.90;;;;;;5137796;27;20150;-78
2022/09/23 03:45:11;;;;;;;3.85;2.90;;;6.60;99.90;;;;;;5136472;27;20036;-78
2022/09/23 03:47:38;;;;;;;4.75;3.20;;;6.60;99.90;;;;;;5114939;27;20027;-78
2022/09/23 03:50:04;;;;;;;5.00;2.90;;;6.60;99.90;;;;;;5121886;27;20027;-79
2022/09/23 03:52:30;;;;;;;4.03;2.88;;;6.60;99.90;;;;;;5106314;27;20020;-79
2022/09/23 03:54:56;;;;;;;4.35;3.40;;;6.50;99.90;;;;;;5104339;27;20524;-78
2022/09/23 03:57:21;;;;;;;2.97;2.72;;;6.50;99.90;;;;;;5128431;27;20027;-78
2022/09/23 03:59:51;;;;;;;4.95;3.25;;;6.50;99.90;;;;;;5123542;27;20039;-78
2022/09/23 04:02:18;;;;;;;3.20;2.90;;;6.40;99.90;;;;;;5129071;27;20798;-78
2022/09/23 04:04:44;;;;;;;3.58;2.90;;;6.40;99.90;;;;;;5132060;27;20363;-78
2022/09/23 04:07:10;;;;;;;4.22;3.10;;;6.40;99.90;;;;;;5126202;27;20070;-78
2022/09/23 04:09:36;;;;;;;3.58;3.00;;;6.40;99.90;;;;;;5121038;27;20029;-79
2022/09/23 04:12:03;;;;;;;4.55;3.05;;;6.40;99.90;;;;;;5114072;27;20032;-79
2022/09/23 04:14:29;;;;;;;5.45;3.08;;;6.40;99.90;;;;;;5132539;27;20026;-78
2022/09/23 04:16:55;;;;;;;3.72;3.03;;;6.40;99.90;;;;;;5132223;27;20031;-78
2022/09/23 04:19:21;;;;;;;3.50;2.85;;;6.30;99.90;;;;;;5120312;27;20022;-78
2022/09/23 04:21:47;;;;;;;3.92;2.88;;;6.30;99.90;;;;;;5122186;27;20050;-79
2022/09/23 04:24:14;;;;;;;4.03;2.88;;;6.30;99.90;;;;;;5124849;27;20106;-78
2022/09/23 04:26:40;;;;;;;4.63;3.10;;;6.30;99.90;;;;;;5117106;27;20156;-78
2022/09/23 04:29:06;;;;;;;4.70;3.45;;;6.30;99.90;;;;;;5129312;27;20071;-78
2022/09/23 04:31:32;;;;;;;3.63;3.00;;;6.30;99.90;;;;;;5123483;27;20023;-78
2022/09/23 04:33:59;;;;;;;4.53;3.20;;;6.30;99.90;;;;;;5131710;27;20105;-78
2022/09/23 04:36:24;;;;;;;3.25;2.80;;;6.30;99.90;;;;;;5126525;27;20114;-78
2022/09/23 04:38:50;;;;;;;2.85;2.53;;;6.20;99.90;;;;;;5134574;27;20518;-78
2022/09/23 04:41:17;;;;;;;3.22;2.80;;;6.20;99.90;;;;;;5122454;27;20104;-78
2022/09/23 04:43:43;;;;;;;18.38;7.38;;;6.20;99.90;;;;;;5123775;27;20031;-78
2022/09/23 04:46:11;;;;;;;29.20;12.80;;;6.20;99.90;;;;;;5133163;27;20526;-78
2022/09/23 04:48:38;;;;;;;37.05;15.75;;;6.10;99.90;;;;;;5120104;27;20205;-78
2022/09/23 04:51:13;;;;;;;41.00;17.30;;;6.10;99.90;;;;;;5124050;27;20069;-79
2022/09/23 04:53:40;;;;;;;35.65;17.05;;;6.10;99.90;;;;;;5134913;27;20030;-78
2022/09/23 04:56:21;;;;;;;37.53;16.23;;;6.10;99.90;;;;;;5127053;27;20106;-78
2022/09/23 04:58:47;;;;;;;32.05;14.63;;;6.10;99.90;;;;;;5107271;27;20023;-78
2022/09/23 05:01:14;;;;;;;22.50;12.13;;;6.10;99.90;;;;;;5130977;27;20031;-78
2022/09/23 05:03:41;;;;;;;19.15;9.60;;;6.10;99.90;;;;;;5118708;27;20031;-78
2022/09/23 05:06:08;;;;;;;11.38;7.15;;;6.20;99.90;;;;;;5112541;27;20491;-78
2022/09/23 05:08:34;;;;;;;9.27;5.95;;;6.20;99.90;;;;;;5127486;27;20031;-78
2022/09/23 05:11:03;;;;;;;7.03;5.20;;;6.20;99.90;;;;;;5127330;27;20011;-78
2022/09/23 05:13:30;;;;;;;7.38;5.35;;;6.20;99.90;;;;;;5124309;27;20080;-77
2022/09/23 05:16:00;;;;;;;7.35;5.25;;;6.20;99.90;;;;;;5115223;27;20024;-78
2022/09/23 05:18:33;;;;;;;6.03;5.07;;;6.20;99.90;;;;;;5110498;27;20031;-78
2022/09/23 05:20:58;;;;;;;9.25;5.88;;;6.20;99.90;;;;;;5107915;27;20566;-78
2022/09/23 05:23:26;;;;;;;8.38;5.38;;;6.20;99.90;;;;;;5106564;27;20287;-78
2022/09/23 05:26:04;;;;;;;5.30;4.72;;;6.20;99.90;;;;;;5111368;27;20032;-78
2022/09/23 05:28:31;;;;;;;8.50;6.00;;;6.20;99.90;;;;;;5109787;27;20081;-78
2022/09/23 05:31:07;;;;;;;12.73;8.75;;;6.20;99.90;;;;;;5107131;27;20020;-79
2022/09/23 05:33:34;;;;;;;18.98;14.20;;;6.20;99.90;;;;;;5134943;27;20055;-78
2022/09/23 05:36:00;;;;;;;30.30;19.63;;;6.30;99.90;;;;;;5116327;27;20085;-79
2022/09/23 05:38:28;;;;;;;17.45;15.48;;;6.20;99.90;;;;;;5117315;27;20396;-79
2022/09/23 05:40:58;;;;;;;17.15;14.13;;;6.10;99.90;;;;;;5111865;27;20059;-80
2022/09/23 05:43:24;;;;;;;16.83;13.60;;;6.10;99.90;;;;;;5103482;27;20187;-79
2022/09/23 05:45:50;;;;;;;17.02;13.07;;;6.10;99.90;;;;;;5100357;27;20127;-79
2022/09/23 05:48:16;;;;;;;13.13;11.00;;;6.10;99.90;;;;;;5085296;28;20059;-79
2022/09/23 05:50:51;;;;;;;17.83;12.60;;;6.10;99.90;;;;;;5093181;27;20058;-79
2022/09/23 05:53:17;;;;;;;16.60;13.15;;;6.10;99.90;;;;;;5097002;27;20526;-79
2022/09/23 05:55:44;;;;;;;14.63;10.90;;;6.10;99.90;;;;;;5106715;27;20054;-79
2022/09/23 05:58:10;;;;;;;10.98;9.23;;;6.10;99.90;;;;;;5100714;27;20050;-79
2022/09/23 06:00:42;;;;;;;10.50;8.48;;;6.10;99.90;;;;;;5098726;27;20028;-79
2022/09/23 06:03:12;;;;;;;10.88;7.82;;;6.10;99.90;;;;;;5119372;27;20023;-79
2022/09/23 06:05:38;;;;;;;10.85;8.00;;;6.20;99.90;;;;;;5111166;27;20114;-79
2022/09/23 06:08:03;;;;;;;10.93;8.65;;;6.30;99.90;;;;;;5100956;27;20395;-79
2022/09/23 06:10:29;;;;;;;15.88;10.35;;;6.30;99.90;;;;;;5099938;27;20411;-80
2022/09/23 06:12:55;;;;;;;11.75;9.80;;;6.40;99.90;;;;;;5112804;27;20508;-80
2022/09/23 06:15:21;;;;;;;10.73;9.48;;;6.50;99.90;;;;;;5119262;27;20119;-79
2022/09/23 06:17:49;;;;;;;10.40;8.35;;;6.70;99.90;;;;;;5104960;27;20032;-79
2022/09/23 06:20:15;;;;;;;8.07;7.22;;;6.80;99.90;;;;;;5111345;27;20019;-79
2022/09/23 06:22:41;;;;;;;8.90;7.38;;;7.00;99.90;;;;;;5092265;27;20028;-80
2022/09/23 06:25:06;;;;;;;10.07;7.03;;;7.10;99.90;;;;;;5096016;27;20038;-80
2022/09/23 06:27:32;;;;;;;16.23;8.48;;;;;;;;;;5090938;27;20024;-77
2022/09/23 06:29:58;;;;;;;9.02;8.02;;;7.20;99.90;;;;;;4760344;27;9999955;-80
2022/09/23 06:32:24;;;;;;;9.07;6.45;;;7.40;99.90;;;;;;5100317;27;20026;-76
2022/09/23 06:34:49;;;;;;;11.65;6.85;;;7.50;99.90;;;;;;5120585;27;20094;-82
2022/09/23 06:37:15;;;;;;;8.80;7.28;;;7.60;99.90;;;;;;5109461;27;20017;-82
2022/09/23 06:39:41;;;;;;;8.85;6.55;;;7.60;99.90;;;;;;5086514;28;20023;-83
2022/09/23 06:42:07;;;;;;;7.25;5.95;;;7.70;99.90;;;;;;5099816;27;20047;-82
2022/09/23 06:44:32;;;;;;;7.03;5.82;;;7.70;99.90;;;;;;5123535;27;20027;-82
2022/09/23 06:46:58;;;;;;;8.50;4.70;;;7.70;99.90;;;;;;5134776;27;20449;-83
2022/09/23 06:49:23;;;;;;;5.55;4.47;;;7.80;99.90;;;;;;5125039;27;20076;-83
2022/09/23 06:51:49;;;;;;;4.88;4.28;;;7.70;99.90;;;;;;5110354;27;20016;-82
2022/09/23 06:54:15;;;;;;;4.85;4.35;;;7.80;99.90;;;;;;5117900;27;20034;-80
2022/09/23 06:56:42;;;;;;;5.90;4.93;;;7.90;99.90;;;;;;5125782;27;20027;-80
2022/09/23 06:59:11;;;;;;;5.88;4.97;;;8.00;99.90;;;;;;5129903;27;20487;-80
2022/09/23 07:01:37;;;;;;;6.10;5.15;;;8.00;99.90;;;;;;5115295;27;20549;-80
2022/09/23 07:04:03;;;;;;;5.75;5.05;;;8.10;99.90;;;;;;4762098;27;10000168;-77
2022/09/23 07:06:28;;;;;;;7.97;5.43;;;8.10;99.90;;;;;;5126909;27;20307;-74
2022/09/23 07:08:54;;;;;;;6.47;4.82;;;8.10;99.90;;;;;;5115235;27;20031;-74
2022/09/23 07:11:21;;;;;;;6.13;4.43;;;8.10;99.90;;;;;;5119444;27;20027;-74
2022/09/23 07:13:47;;;;;;;7.22;4.85;;;8.00;99.90;;;;;;5104440;27;20089;-74
2022/09/23 07:16:13;;;;;;;9.55;5.45;;;8.00;99.90;;;;;;5104246;27;20030;-74
2022/09/23 07:18:39;;;;;;;8.00;5.22;;;8.10;99.90;;;;;;5122231;27;20023;-74
2022/09/23 07:21:13;;;;;;;7.85;5.22;;;8.10;99.90;;;;;;5116938;27;20027;-74
2022/09/23 07:23:40;;;;;;;8.25;5.88;;;8.10;99.90;;;;;;5108852;27;20080;-76
2022/09/23 07:26:06;;;;;;;14.00;6.35;;;8.10;99.90;;;;;;5116576;27;20092;-75
2022/09/23 07:28:32;;;;;;;11.63;4.95;;;8.20;99.90;;;;;;5122673;27;20023;-77
2022/09/23 07:31:03;;;;;;;7.07;5.53;;;8.20;99.90;;;;;;5133826;27;20034;-74
2022/09/23 07:33:30;;;;;;;6.20;5.60;;;8.20;99.90;;;;;;5109152;27;20035;-75
2022/09/23 07:35:56;;;;;;;7.07;5.07;;;8.30;99.90;;;;;;5123156;27;20050;-76
2022/09/23 07:38:28;;;;;;;5.82;4.90;;;8.30;99.90;;;;;;5102960;27;20034;-74
2022/09/23 07:41:03;;;;;;;6.30;4.77;;;8.30;99.90;;;;;;5141951;27;20042;-76
2022/09/23 07:43:31;;;;;;;8.00;5.30;;;8.40;99.90;;;;;;5124169;27;20030;-74
2022/09/23 07:46:01;;;;;;;6.85;5.13;;;8.50;99.90;;;;;;5138018;27;20042;-75
2022/09/23 07:48:29;;;;;;;6.20;4.93;;;8.50;99.90;;;;;;5131824;27;20031;-75
2022/09/23 07:50:55;;;;;;;6.20;4.93;;;8.70;99.90;;;;;;5125269;27;20058;-76
2022/09/23 07:53:22;;;;;;;6.40;5.03;;;8.80;99.90;;;;;;5122360;27;20038;-75
2022/09/23 07:55:55;;;;;;;6.13;4.80;;;8.90;99.90;;;;;;5102160;27;20588;-77
2022/09/23 07:58:21;;;;;;;6.68;4.45;;;9.00;99.90;;;;;;5131423;27;20106;-77
2022/09/23 08:00:47;;;;;;;5.03;4.32;;;9.10;99.90;;;;;;5120317;27;20031;-74
2022/09/23 08:03:13;;;;;;;4.95;4.45;;;9.10;99.90;;;;;;5117161;27;20031;-77
2022/09/23 08:05:39;;;;;;;6.25;5.55;;;9.20;99.90;;;;;;5116955;27;20233;-76
2022/09/23 08:08:06;;;;;;;8.68;6.85;;;9.40;99.90;;;;;;5124088;27;20085;-79
2022/09/23 08:10:32;;;;;;;8.65;6.68;;;9.60;99.90;;;;;;5111433;27;20040;-75
2022/09/23 08:12:58;;;;;;;6.47;5.38;;;9.80;99.90;;;;;;5106582;27;20019;-75
2022/09/23 08:15:25;;;;;;;7.18;5.80;;;10.00;99.90;;;;;;5140027;27;20037;-76
2022/09/23 08:17:51;;;;;;;12.63;8.05;;;10.30;99.90;;;;;;5107215;27;20204;-78
2022/09/23 08:20:43;;;;;;;7.13;5.47;;;10.40;99.90;;;;;;5120460;27;20035;-77
2022/09/23 08:23:02;;;;;;;6.85;5.28;;;10.60;99.90;;;;;;5118085;27;20096;-75
2022/09/23 08:25:28;;;;;;;8.55;6.75;;;10.70;99.90;;;;;;5135260;27;20043;-75
2022/09/23 08:27:54;;;;;;;8.40;5.13;;;10.80;99.90;;;;;;5131993;27;20027;-76
2022/09/23 08:30:19;;;;;;;9.57;6.65;;;11.00;99.90;;;;;;5130625;27;20028;-74
2022/09/23 08:32:49;;;;;;;13.07;9.23;;;11.10;99.90;;;;;;5108104;27;20451;-74
2022/09/23 08:35:15;;;;;;;10.48;6.38;;;11.20;99.90;;;;;;5129468;27;20277;-76
2022/09/23 08:37:40;;;;;;;6.57;5.88;;;11.30;99.90;;;;;;5112389;27;20033;-77
2022/09/23 08:40:06;;;;;;;6.53;5.15;;;11.30;99.90;;;;;;5103673;27;20164;-85
2022/09/23 08:42:34;;;;;;;7.28;6.57;;;11.40;99.90;;;;;;5099270;27;20116;-81
2022/09/23 08:45:03;;;;;;;5.20;4.10;;;11.40;99.90;;;;;;5097758;27;20620;-81
2022/09/23 08:47:42;;;;;;;8.98;4.75;;;11.50;99.90;;;;;;5117212;27;20027;-78
2022/09/23 08:50:37;;;;;;;7.78;4.60;;;11.60;99.90;;;;;;5123755;27;20031;-78
2022/09/23 08:53:10;;;;;;;4.75;4.13;;;11.60;99.90;;;;;;5104313;27;20023;-83
2022/09/23 08:55:50;;;;;;;5.97;4.20;;;11.60;99.90;;;;;;5126878;27;20031;-79
2022/09/23 08:58:35;;;;;;;4.95;3.78;;;11.70;99.90;;;;;;5119450;27;20039;-75
2022/09/23 09:01:20;;;;;;;5.55;4.47;;;12.00;99.90;;;;;;5119687;27;20049;-78
2022/09/23 09:03:58;;;;;;;4.80;4.05;;;12.20;99.90;;;;;;5116705;27;20487;-78
2022/09/23 09:06:36;;;;;;;7.13;3.75;;;12.30;99.90;;;;;;5118053;27;20035;-81
2022/09/23 09:09:05;;;;;;;4.63;3.90;;;12.50;99.90;;;;;;5113816;27;20020;-80
2022/09/23 09:11:42;;;;;;;6.65;4.47;;;12.60;99.90;;;;;;5121091;27;20019;-79
2022/09/23 09:14:31;;;;;;;5.25;3.45;;;12.60;99.90;;;;;;5126642;27;20018;-77
2022/09/23 09:17:00;;;;;;;5.80;3.90;;;12.70;99.90;;;;;;5062288;27;20031;-78
2022/09/23 09:19:56;;;;;;;5.18;3.97;;;12.90;99.90;;;;;;5120123;27;20084;-77
2022/09/23 09:22:41;;;;;;;8.20;4.57;;;13.00;99.90;;;;;;5120267;27;20455;-79
2022/09/23 09:25:36;;;;;;;6.85;4.10;;;13.20;99.90;;;;;;5120088;27;20530;-78
2022/09/23 09:28:13;;;;;;;4.60;3.65;;;13.30;99.90;;;;;;5107310;27;20491;-83
2022/09/23 09:30:39;;;;;;;4.28;3.58;;;13.40;99.90;;;;;;5107895;27;20384;-83
2022/09/23 09:33:14;;;;;;;4.65;3.53;;;13.50;99.90;;;;;;5120035;27;20026;-84
2022/09/23 09:36:07;;;;;;;5.07;3.42;;;13.60;99.90;;;;;;5124962;27;20495;-83
2022/09/23 09:38:34;;;;;;;5.90;3.33;;;13.80;99.90;;;;;;5118519;27;20080;-83
2022/09/23 09:41:10;;;;;;;4.30;3.45;;;14.00;99.90;;;;;;5128959;27;20058;-81
2022/09/23 09:43:39;;;;;;;8.18;3.58;;;14.10;99.90;;;;;;5113373;27;20023;-82
2022/09/23 09:46:38;;;;;;;5.22;3.50;;;14.20;99.90;;;;;;5130655;27;20040;-79
2022/09/23 09:49:22;;;;;;;3.53;3.20;;;14.20;99.90;;;;;;5111944;27;20550;-78
2022/09/23 09:51:58;;;;;;;3.95;3.03;;;14.30;99.90;;;;;;5121353;27;20057;-77
2022/09/23 09:54:24;;;;;;;5.38;3.05;;;14.40;99.90;;;;;;5114246;27;20409;-80
2022/09/23 09:56:51;;;;;;;4.97;3.20;;;14.50;99.90;;;;;;5125436;27;20031;-78
2022/09/23 09:59:23;;;;;;;3.50;3.20;;;14.70;99.90;;;;;;5119433;27;20027;-76
2022/09/23 10:02:09;;;;;;;4.35;3.40;;;14.80;99.90;;;;;;5122802;27;20412;-81
2022/09/23 10:04:35;;;;;;;4.63;4.18;;;14.80;99.90;;;;;;5117367;27;20066;-81
2022/09/23 10:07:08;;;;;;;3.70;3.40;;;15.00;99.90;;;;;;5103902;27;20450;-81
2022/09/23 10:09:36;;;;;;;4.65;3.92;;;15.00;99.90;;;;;;5113808;27;20069;-81
2022/09/23 10:12:14;;;;;;;7.47;4.00;;;15.20;99.90;;;;;;5144106;27;20113;-81
2022/09/23 10:14:41;;;;;;;6.28;4.43;;;15.30;99.90;;;;;;5147674;27;20051;-81
2022/09/23 10:17:13;;;;;;;7.70;6.90;;;15.40;99.90;;;;;;5146114;27;20030;-81
2022/09/23 10:19:46;;;;;;;8.80;7.33;;;15.50;99.90;;;;;;5120484;27;20394;-81
2022/09/23 10:22:22;;;;;;;4.90;4.40;;;15.60;99.90;;;;;;5111820;27;20300;-81
2022/09/23 10:24:51;;;;;;;7.47;6.03;;;15.80;99.90;;;;;;5108789;27;20031;-81
2022/09/23 10:27:25;;;;;;;4.93;3.85;;;15.90;99.90;;;;;;5105045;28;20027;-81
2022/09/23 10:29:55;;;;;;;3.63;3.25;;;16.10;99.90;;;;;;5120923;27;20048;-81
2022/09/23 10:32:27;;;;;;;4.55;3.40;;;16.20;99.90;;;;;;5133577;27;20038;-82
2022/09/23 10:35:14;;;;;;;6.90;4.90;;;16.20;99.90;;;;;;5141305;27;20019;-81
2022/09/23 10:37:54;;;;;;;6.00;3.33;;;16.20;99.90;;;;;;5106312;27;20031;-81
2022/09/23 10:46:52;;;;;;;5.35;3.95;;;16.10;99.90;;;;;;5145879;27;20058;-82
2022/09/23 10:49:51;;;;;;;4.50;4.10;;;16.20;99.90;;;;;;5147796;27;20319;-82
2022/09/23 10:52:26;;;;;;;5.22;3.78;;;16.30;99.90;;;;;;5107754;27;20015;-82
2022/09/23 10:55:28;;;;;;;4.03;2.92;;;16.60;99.90;;;;;;5111618;27;20247;-81
2022/09/23 10:58:16;;;;;;;3.72;3.05;;;16.60;99.90;;;;;;5083630;27;20027;-82
2022/09/23 11:00:41;;;;;;;3.88;3.50;;;16.80;99.90;;;;;;5124110;27;20026;-82
2022/09/23 11:03:51;;;;;;;4.88;3.80;;;16.80;99.90;;;;;;5112587;27;20031;-82
2022/09/23 11:06:37;;;;;;;4.10;3.30;;;16.90;99.90;;;;;;5099411;27;20633;-80
2022/09/23 11:09:29;;;;;;;3.90;3.50;;;17.20;99.90;;;;;;5132478;27;21012;-79
2022/09/23 11:12:39;;;;;;;5.97;3.90;;;17.30;99.90;;;;;;5137085;27;20024;-80
2022/09/23 11:15:31;;;;;;;8.45;4.15;;;17.50;99.90;;;;;;5106751;27;20338;-79
2022/09/23 11:18:24;;;;;;;5.18;3.30;;;17.60;99.90;;;;;;5121294;27;20035;-79
2022/09/23 11:20:59;;;;;;;5.93;3.20;;;17.60;99.90;;;;;;5142586;27;20463;-79
2022/09/23 11:23:54;;;;;;;3.20;2.90;;;17.70;99.90;;;;;;5111091;27;20321;-79
2022/09/23 11:26:22;;;;;;;4.40;3.42;;;17.80;99.90;;;;;;5097417;27;20199;-79
2022/09/23 11:29:03;;;;;;;2.85;2.60;;;17.90;99.90;;;;;;5117751;27;20019;-82
2022/09/23 11:31:39;;;;;;;4.82;3.63;;;17.90;99.90;;;;;;5134346;27;20288;-82
2022/09/23 11:34:55;;;;;;;4.32;3.65;;;18.00;99.90;;;;;;4768237;27;9999820;-79
2022/09/23 11:37:27;;;;;;;4.82;4.10;;;18.10;99.90;;;;;;5109767;27;20083;-78
2022/09/23 11:40:26;;;;;;;6.50;3.72;;;18.20;99.90;;;;;;5119024;27;20413;-80
2022/09/23 11:42:58;;;;;;;5.20;3.72;;;18.10;99.90;;;;;;5106309;28;20368;-80
2022/09/23 11:45:38;;;;;;;3.53;3.22;;;18.10;99.90;;;;;;5108687;28;20121;-79
2022/09/23 11:48:21;;;;;;;5.57;4.07;;;18.10;99.90;;;;;;5109360;28;20019;-79
2022/09/23 11:50:58;;;;;;;7.68;4.97;;;18.00;99.90;;;;;;5101790;28;20020;-80
2022/09/23 11:53:47;;;;;;;5.65;4.40;;;18.00;99.90;;;;;;5094997;28;20024;-80
2022/09/23 11:56:25;;;;;;;7.07;4.60;;;18.00;99.90;;;;;;5105389;28;20279;-79
2022/09/23 11:59:15;;;;;;;4.32;3.85;;;18.00;99.90;;;;;;5114533;28;20036;-78
2022/09/23 12:01:48;;;;;;;4.85;3.83;;;18.00;99.90;;;;;;5107994;28;20357;-79
2022/09/23 12:04:34;;;;;;;4.50;3.83;;;18.10;99.90;;;;;;5103257;28;20035;-79
2022/09/23 12:07:21;;;;;;;3.58;3.20;;;18.20;99.90;;;;;;5117462;28;20034;-80
2022/09/23 12:10:04;;;;;;;4.97;3.65;;;18.30;99.90;;;;;;5114147;28;20024;-82
2022/09/23 12:12:53;;;;;;;4.25;3.55;;;18.50;99.90;;;;;;5089298;28;20020;-80
2022/09/23 12:15:36;;;;;;;5.82;3.72;;;18.50;99.80;;;;;;5104914;28;20043;-80
2022/09/23 12:18:41;;;;;;;4.65;3.70;;;18.50;99.90;;;;;;5097004;28;20035;-81
2022/09/23 12:21:25;;;;;;;4.55;3.47;;;18.50;99.90;;;;;;5094797;28;20043;-81
2022/09/23 12:24:21;;;;;;;3.15;2.95;;;18.40;99.90;;;;;;5120639;27;20031;-81
2022/09/23 12:27:00;;;;;;;4.65;3.70;;;18.40;99.90;;;;;;5091937;27;20298;-79
2022/09/23 12:29:30;;;;;;;3.65;2.40;;;18.40;99.90;;;;;;5100859;27;20090;-79
2022/09/23 12:31:56;;;;;;;3.55;2.45;;;18.30;99.70;;;;;;5104385;27;20089;-77
2022/09/23 12:34:47;;;;;;;3.58;2.03;;;18.20;98.60;;;;;;5100216;27;20111;-79
2022/09/23 12:37:26;;;;;;;2.15;1.83;;;18.30;97.90;;;;;;5098422;27;20097;-78
2022/09/23 12:39:53;;;;;;;3.75;1.83;;;18.30;96.80;;;;;;5097126;27;20038;-77
2022/09/23 12:42:21;;;;;;;3.88;1.88;;;18.30;97.50;;;;;;5121494;27;20497;-76
2022/09/23 12:44:48;;;;;;;3.55;1.60;;;18.40;97.70;;;;;;5099189;27;20519;-77
2022/09/23 12:47:13;;;;;;;2.80;1.98;;;18.50;97.80;;;;;;5112073;27;20039;-77
2022/09/23 12:49:40;;;;;;;3.25;2.10;;;18.60;97.20;;;;;;5096322;27;20019;-78
2022/09/23 12:52:23;;;;;;;2.88;2.00;;;18.70;97.30;;;;;;5107019;27;20032;-77
2022/09/23 12:54:50;;;;;;;3.92;1.85;;;18.80;97.50;;;;;;5114105;27;20045;-77
2022/09/23 12:57:33;;;;;;;5.18;2.17;;;18.90;97.30;;;;;;5090184;27;20140;-77
2022/09/23 13:00:22;;;;;;;2.60;2.40;;;19.00;96.80;;;;;;5097875;27;20549;-77
2022/09/23 13:08:26;;;;;;;;;;;19.10;94.30;;;;;;5094412;27;20031;-77
2022/09/23 13:11:22;;;;;;;3.75;2.10;;;19.20;94.20;;;;;;5113171;27;19912;-77
2022/09/23 13:13:49;;;;;;;2.80;2.38;;;19.20;94.20;;;;;;5083968;28;20058;-77
2022/09/23 13:16:20;;;;;;;6.30;2.40;;;19.20;94.10;;;;;;5107960;27;20046;-77
2022/09/23 13:19:03;;;;;;;5.18;4.18;;;19.20;94.50;;;;;;5100891;27;20024;-76
2022/09/23 13:21:41;;;;;;;3.50;3.20;;;19.10;93.80;;;;;;5112264;27;20046;-76
2022/09/23 13:24:18;;;;;;;2.10;1.90;;;19.10;94.30;;;;;;5088678;28;20043;-80
2022/09/23 13:26:48;;;;;;;2.50;1.90;;;;;;;;;;5090267;27;20027;-83
2022/09/23 13:29:39;;;;;;;2.50;1.60;;;19.10;94.60;;;;;;5091427;27;20082;-83
2022/09/23 13:32:11;;;;;;;5.10;2.00;;;19.20;94.30;;;;;;5111857;27;20063;-81
2022/09/23 13:34:38;;;;;;;3.47;1.50;;;19.20;94.50;;;;;;5107260;27;20028;-82
2022/09/23 13:37:19;;;;;;;2.83;1.88;;;19.20;92.90;;;;;;5110941;27;20479;-81